sensor_id;sensor_type;location;lat;lon;timestamp;P1;durP1;ratioP1;P2;durP2;ratioP2
28343;SDS011;15597;50.914;6.638;2022-09-21T00:00:23;9.77;;;2.83;;
28343;SDS011;15597;50.914;6.638;2022-09-21T00:02:50;10.85;;;3.45;;
28343;SDS011;15597;50.914;6.638;2022-09-21T00:05:16;7.93;;;3.00;;
28343;SDS011;15597;50.914;6.638;2022-09-21T00:07:42;7.68;;;2.60;;
28343;SDS011;15597;50.914;6.638;2022-09-21T00:10:08;6.40;;;2.22;;
28343;SDS011;15597;50.914;6.638;2022-09-21T00:12:34;7.45;;;2.58;;
28343;SDS011;15597;50.914;6.638;2022-09-21T00:15:06;6.85;;;2.33;;
28343;SDS011;15597;50.914;6.638;2022-09-21T00:17:33;6.70;;;2.60;;
28343;SDS011;15597;50.914;6.638;2022-09-21T00:19:59;5.53;;;2.55;;
28343;SDS011;15597;50.914;6.638;2022-09-21T00:22:31;5.63;;;2.33;;
28343;SDS011;15597;50.914;6.638;2022-09-21T00:24:57;6.88;;;2.58;;
28343;SDS011;15597;50.914;6.638;2022-09-21T00:27:23;5.78;;;2.33;;
28343;SDS011;15597;50.914;6.638;2022-09-21T00:29:54;9.95;;;2.38;;
28343;SDS011;15597;50.914;6.638;2022-09-21T00:32:20;6.20;;;2.30;;
28343;SDS011;15597;50.914;6.638;2022-09-21T00:34:46;6.35;;;2.17;;
28343;SDS011;15597;50.914;6.638;2022-09-21T00:37:12;5.53;;;2.10;;
28343;SDS011;15597;50.914;6.638;2022-09-21T00:39:37;6.00;;;2.20;;
28343;SDS011;15597;50.914;6.638;2022-09-21T00:42:09;7.95;;;2.15;;
28343;SDS011;15597;50.914;6.638;2022-09-21T00:44:40;11.20;;;2.25;;
28343;SDS011;15597;50.914;6.638;2022-09-21T00:47:08;4.88;;;1.83;;
28343;SDS011;15597;50.914;6.638;2022-09-21T00:49:37;6.95;;;2.15;;
28343;SDS011;15597;50.914;6.638;2022-09-21T00:52:04;5.05;;;2.00;;
28343;SDS011;15597;50.914;6.638;2022-09-21T00:54:32;8.90;;;2.03;;
28343;SDS011;15597;50.914;6.638;2022-09-21T00:57:03;7.68;;;2.65;;
28343;SDS011;15597;50.914;6.638;2022-09-21T00:59:30;6.15;;;2.15;;
28343;SDS011;15597;50.914;6.638;2022-09-21T01:01:58;6.35;;;2.30;;
28343;SDS011;15597;50.914;6.638;2022-09-21T01:04:24;5.57;;;1.85;;
28343;SDS011;15597;50.914;6.638;2022-09-21T01:06:52;8.70;;;2.55;;
28343;SDS011;15597;50.914;6.638;2022-09-21T01:09:20;7.28;;;2.33;;
28343;SDS011;15597;50.914;6.638;2022-09-21T01:11:56;6.90;;;2.30;;
28343;SDS011;15597;50.914;6.638;2022-09-21T01:17:35;5.32;;;1.90;;
28343;SDS011;15597;50.914;6.638;2022-09-21T01:23:20;5.35;;;2.00;;
28343;SDS011;15597;50.914;6.638;2022-09-21T01:28:57;6.00;;;2.28;;
28343;SDS011;15597;50.914;6.638;2022-09-21T01:31:53;10.05;;;2.30;;
28343;SDS011;15597;50.914;6.638;2022-09-21T01:40:25;8.48;;;2.45;;
28343;SDS011;15597;50.914;6.638;2022-09-21T01:42:56;9.00;;;3.03;;
28343;SDS011;15597;50.914;6.638;2022-09-21T01:45:26;7.10;;;2.10;;
28343;SDS011;15597;50.914;6.638;2022-09-21T01:47:56;6.22;;;2.30;;
28343;SDS011;15597;50.914;6.638;2022-09-21T01:50:24;6.93;;;2.33;;
28343;SDS011;15597;50.914;6.638;2022-09-21T01:53:15;7.72;;;2.40;;
28343;SDS011;15597;50.914;6.638;2022-09-21T01:55:43;6.63;;;2.58;;
28343;SDS011;15597;50.914;6.638;2022-09-21T01:58:34;6.50;;;2.38;;
28343;SDS011;15597;50.914;6.638;2022-09-21T02:01:06;7.45;;;2.65;;
28343;SDS011;15597;50.914;6.638;2022-09-21T02:03:37;8.75;;;2.65;;
28343;SDS011;15597;50.914;6.638;2022-09-21T02:06:05;5.78;;;2.55;;
28343;SDS011;15597;50.914;6.638;2022-09-21T02:08:32;8.55;;;2.95;;
28343;SDS011;15597;50.914;6.638;2022-09-21T02:11:01;6.30;;;2.70;;
28343;SDS011;15597;50.914;6.638;2022-09-21T02:13:32;6.03;;;2.40;;
28343;SDS011;15597;50.914;6.638;2022-09-21T02:22:00;6.28;;;2.90;;
28343;SDS011;15597;50.914;6.638;2022-09-21T02:24:24;4.72;;;2.30;;
28343;SDS011;15597;50.914;6.638;2022-09-21T02:27:01;7.68;;;2.63;;
28343;SDS011;15597;50.914;6.638;2022-09-21T02:34:42;8.80;;;3.13;;
28343;SDS011;15597;50.914;6.638;2022-09-21T02:42:55;5.50;;;2.50;;
28343;SDS011;15597;50.914;6.638;2022-09-21T02:45:26;5.97;;;2.50;;
28343;SDS011;15597;50.914;6.638;2022-09-21T02:50:31;7.10;;;2.50;;
28343;SDS011;15597;50.914;6.638;2022-09-21T02:53:18;7.88;;;3.17;;
28343;SDS011;15597;50.914;6.638;2022-09-21T02:55:48;6.25;;;2.50;;
28343;SDS011;15597;50.914;6.638;2022-09-21T02:58:16;8.13;;;2.55;;
28343;SDS011;15597;50.914;6.638;2022-09-21T03:00:44;7.18;;;2.40;;
28343;SDS011;15597;50.914;6.638;2022-09-21T03:03:17;7.60;;;2.30;;
28343;SDS011;15597;50.914;6.638;2022-09-21T03:05:48;9.68;;;2.80;;
28343;SDS011;15597;50.914;6.638;2022-09-21T03:08:15;6.88;;;2.83;;
28343;SDS011;15597;50.914;6.638;2022-09-21T03:10:41;4.65;;;2.30;;
28343;SDS011;15597;50.914;6.638;2022-09-21T03:13:07;7.25;;;2.58;;
28343;SDS011;15597;50.914;6.638;2022-09-21T03:15:38;8.40;;;2.72;;
28343;SDS011;15597;50.914;6.638;2022-09-21T03:18:05;5.97;;;2.60;;
28343;SDS011;15597;50.914;6.638;2022-09-21T03:20:35;4.80;;;2.28;;
28343;SDS011;15597;50.914;6.638;2022-09-21T03:23:01;5.53;;;2.53;;
28343;SDS011;15597;50.914;6.638;2022-09-21T03:25:27;8.88;;;2.95;;
28343;SDS011;15597;50.914;6.638;2022-09-21T03:27:53;9.00;;;2.70;;
28343;SDS011;15597;50.914;6.638;2022-09-21T03:30:20;7.00;;;2.80;;
28343;SDS011;15597;50.914;6.638;2022-09-21T03:32:52;6.68;;;2.75;;
28343;SDS011;15597;50.914;6.638;2022-09-21T03:35:19;8.02;;;2.72;;
28343;SDS011;15597;50.914;6.638;2022-09-21T03:37:46;7.40;;;2.50;;
28343;SDS011;15597;50.914;6.638;2022-09-21T03:40:13;8.52;;;2.88;;
28343;SDS011;15597;50.914;6.638;2022-09-21T03:42:40;6.78;;;2.78;;
28343;SDS011;15597;50.914;6.638;2022-09-21T03:45:07;6.43;;;2.90;;
28343;SDS011;15597;50.914;6.638;2022-09-21T03:47:34;6.03;;;2.60;;
28343;SDS011;15597;50.914;6.638;2022-09-21T03:50:00;4.78;;;2.33;;
28343;SDS011;15597;50.914;6.638;2022-09-21T03:52:25;7.32;;;2.67;;
28343;SDS011;15597;50.914;6.638;2022-09-21T03:54:51;6.90;;;2.78;;
28343;SDS011;15597;50.914;6.638;2022-09-21T03:57:17;4.72;;;2.78;;
28343;SDS011;15597;50.914;6.638;2022-09-21T03:59:42;5.43;;;2.72;;
28343;SDS011;15597;50.914;6.638;2022-09-21T04:02:07;5.95;;;2.83;;
28343;SDS011;15597;50.914;6.638;2022-09-21T04:04:33;11.02;;;3.10;;
28343;SDS011;15597;50.914;6.638;2022-09-21T04:06:59;4.10;;;2.10;;
28343;SDS011;15597;50.914;6.638;2022-09-21T04:09:24;8.50;;;2.50;;
28343;SDS011;15597;50.914;6.638;2022-09-21T04:11:50;7.38;;;2.70;;
28343;SDS011;15597;50.914;6.638;2022-09-21T04:14:17;5.25;;;2.40;;
28343;SDS011;15597;50.914;6.638;2022-09-21T04:16:43;5.22;;;2.45;;
28343;SDS011;15597;50.914;6.638;2022-09-21T04:19:08;6.57;;;2.50;;
28343;SDS011;15597;50.914;6.638;2022-09-21T04:21:34;7.07;;;2.70;;
28343;SDS011;15597;50.914;6.638;2022-09-21T04:24:00;6.30;;;2.50;;
28343;SDS011;15597;50.914;6.638;2022-09-21T04:26:27;5.25;;;2.55;;
28343;SDS011;15597;50.914;6.638;2022-09-21T04:28:54;5.22;;;2.45;;
28343;SDS011;15597;50.914;6.638;2022-09-21T04:31:21;6.45;;;2.75;;
28343;SDS011;15597;50.914;6.638;2022-09-21T04:33:48;5.88;;;2.67;;
28343;SDS011;15597;50.914;6.638;2022-09-21T04:36:15;6.43;;;3.03;;
28343;SDS011;15597;50.914;6.638;2022-09-21T04:38:44;6.55;;;2.58;;
28343;SDS011;15597;50.914;6.638;2022-09-21T04:41:10;7.57;;;2.90;;
28343;SDS011;15597;50.914;6.638;2022-09-21T04:43:35;7.35;;;2.50;;
28343;SDS011;15597;50.914;6.638;2022-09-21T04:46:05;4.70;;;2.33;;
28343;SDS011;15597;50.914;6.638;2022-09-21T04:48:32;6.78;;;2.58;;
28343;SDS011;15597;50.914;6.638;2022-09-21T04:50:58;9.13;;;2.53;;
28343;SDS011;15597;50.914;6.638;2022-09-21T04:53:24;6.22;;;2.83;;
28343;SDS011;15597;50.914;6.638;2022-09-21T04:55:49;5.30;;;2.33;;
28343;SDS011;15597;50.914;6.638;2022-09-21T04:58:15;4.50;;;2.42;;
28343;SDS011;15597;50.914;6.638;2022-09-21T05:00:40;7.10;;;2.50;;
28343;SDS011;15597;50.914;6.638;2022-09-21T05:03:06;6.40;;;2.80;;
28343;SDS011;15597;50.914;6.638;2022-09-21T05:05:31;9.43;;;3.28;;
28343;SDS011;15597;50.914;6.638;2022-09-21T05:07:57;6.30;;;2.80;;
28343;SDS011;15597;50.914;6.638;2022-09-21T05:10:23;5.20;;;2.60;;
28343;SDS011;15597;50.914;6.638;2022-09-21T05:12:49;7.30;;;2.42;;
28343;SDS011;15597;50.914;6.638;2022-09-21T05:15:15;5.68;;;2.50;;
28343;SDS011;15597;50.914;6.638;2022-09-21T05:17:41;7.30;;;2.50;;
28343;SDS011;15597;50.914;6.638;2022-09-21T05:20:07;7.30;;;2.78;;
28343;SDS011;15597;50.914;6.638;2022-09-21T05:22:34;8.77;;;3.17;;
28343;SDS011;15597;50.914;6.638;2022-09-21T05:24:59;7.60;;;3.35;;
28343;SDS011;15597;50.914;6.638;2022-09-21T05:27:25;10.60;;;3.67;;
28343;SDS011;15597;50.914;6.638;2022-09-21T05:29:50;9.05;;;3.60;;
28343;SDS011;15597;50.914;6.638;2022-09-21T05:32:27;5.60;;;2.80;;
28343;SDS011;15597;50.914;6.638;2022-09-21T05:40:18;7.20;;;2.53;;
28343;SDS011;15597;50.914;6.638;2022-09-21T05:42:44;5.90;;;2.63;;
28343;SDS011;15597;50.914;6.638;2022-09-21T05:45:13;5.68;;;2.60;;
28343;SDS011;15597;50.914;6.638;2022-09-21T05:56:11;6.80;;;2.75;;
28343;SDS011;15597;50.914;6.638;2022-09-21T06:01:29;8.02;;;2.75;;
28343;SDS011;15597;50.914;6.638;2022-09-21T06:06:26;7.88;;;2.53;;
28343;SDS011;15597;50.914;6.638;2022-09-21T06:08:51;6.65;;;2.42;;
28343;SDS011;15597;50.914;6.638;2022-09-21T06:11:17;10.07;;;2.70;;
28343;SDS011;15597;50.914;6.638;2022-09-21T06:13:43;8.27;;;2.58;;
28343;SDS011;15597;50.914;6.638;2022-09-21T06:16:09;8.52;;;2.60;;
28343;SDS011;15597;50.914;6.638;2022-09-21T06:18:38;7.40;;;2.67;;
28343;SDS011;15597;50.914;6.638;2022-09-21T06:21:05;5.00;;;2.42;;
28343;SDS011;15597;50.914;6.638;2022-09-21T06:23:32;6.80;;;2.33;;
28343;SDS011;15597;50.914;6.638;2022-09-21T06:25:57;7.15;;;2.50;;
28343;SDS011;15597;50.914;6.638;2022-09-21T06:28:23;10.07;;;2.47;;
28343;SDS011;15597;50.914;6.638;2022-09-21T06:30:52;8.45;;;3.00;;
28343;SDS011;15597;50.914;6.638;2022-09-21T06:33:19;6.15;;;2.22;;
28343;SDS011;15597;50.914;6.638;2022-09-21T06:36:05;9.05;;;2.47;;
28343;SDS011;15597;50.914;6.638;2022-09-21T06:38:31;9.05;;;2.28;;
28343;SDS011;15597;50.914;6.638;2022-09-21T06:41:02;6.97;;;2.88;;
28343;SDS011;15597;50.914;6.638;2022-09-21T06:43:29;6.43;;;2.90;;
28343;SDS011;15597;50.914;6.638;2022-09-21T06:45:56;5.95;;;2.33;;
28343;SDS011;15597;50.914;6.638;2022-09-21T06:48:23;5.47;;;2.40;;
28343;SDS011;15597;50.914;6.638;2022-09-21T06:50:50;6.57;;;2.70;;
28343;SDS011;15597;50.914;6.638;2022-09-21T06:53:15;5.65;;;2.30;;
28343;SDS011;15597;50.914;6.638;2022-09-21T06:55:41;8.18;;;3.20;;
28343;SDS011;15597;50.914;6.638;2022-09-21T06:58:07;8.30;;;2.75;;
28343;SDS011;15597;50.914;6.638;2022-09-21T07:00:33;6.55;;;2.40;;
28343;SDS011;15597;50.914;6.638;2022-09-21T07:02:58;5.32;;;1.98;;
28343;SDS011;15597;50.914;6.638;2022-09-21T07:05:24;7.20;;;2.65;;
28343;SDS011;15597;50.914;6.638;2022-09-21T07:07:50;8.27;;;2.30;;
28343;SDS011;15597;50.914;6.638;2022-09-21T07:10:15;5.40;;;2.50;;
28343;SDS011;15597;50.914;6.638;2022-09-21T07:12:42;6.22;;;2.60;;
28343;SDS011;15597;50.914;6.638;2022-09-21T07:15:08;8.20;;;2.70;;
28343;SDS011;15597;50.914;6.638;2022-09-21T07:17:35;6.18;;;3.17;;
28343;SDS011;15597;50.914;6.638;2022-09-21T07:20:02;11.48;;;3.30;;
28343;SDS011;15597;50.914;6.638;2022-09-21T07:22:32;10.52;;;3.40;;
28343;SDS011;15597;50.914;6.638;2022-09-21T07:24:58;10.95;;;3.00;;
28343;SDS011;15597;50.914;6.638;2022-09-21T07:27:24;7.75;;;3.92;;
28343;SDS011;15597;50.914;6.638;2022-09-21T07:29:51;7.90;;;2.90;;
28343;SDS011;15597;50.914;6.638;2022-09-21T07:32:17;7.13;;;2.55;;
28343;SDS011;15597;50.914;6.638;2022-09-21T07:34:43;6.70;;;2.50;;
28343;SDS011;15597;50.914;6.638;2022-09-21T07:37:09;6.95;;;2.90;;
28343;SDS011;15597;50.914;6.638;2022-09-21T07:39:35;7.32;;;2.90;;
28343;SDS011;15597;50.914;6.638;2022-09-21T07:42:00;18.50;;;4.63;;
28343;SDS011;15597;50.914;6.638;2022-09-21T07:44:26;10.98;;;2.97;;
28343;SDS011;15597;50.914;6.638;2022-09-21T07:46:51;10.50;;;4.90;;
28343;SDS011;15597;50.914;6.638;2022-09-21T07:49:17;10.98;;;4.45;;
28343;SDS011;15597;50.914;6.638;2022-09-21T07:51:42;13.15;;;5.95;;
28343;SDS011;15597;50.914;6.638;2022-09-21T07:54:08;9.07;;;3.85;;
28343;SDS011;15597;50.914;6.638;2022-09-21T07:56:37;9.48;;;3.28;;
28343;SDS011;15597;50.914;6.638;2022-09-21T07:59:03;11.48;;;5.43;;
28343;SDS011;15597;50.914;6.638;2022-09-21T08:01:33;10.48;;;4.53;;
28343;SDS011;15597;50.914;6.638;2022-09-21T08:04:00;10.88;;;3.78;;
28343;SDS011;15597;50.914;6.638;2022-09-21T08:06:27;11.25;;;3.97;;
28343;SDS011;15597;50.914;6.638;2022-09-21T08:08:57;9.35;;;3.30;;
28343;SDS011;15597;50.914;6.638;2022-09-21T08:11:27;7.50;;;3.28;;
28343;SDS011;15597;50.914;6.638;2022-09-21T08:13:55;11.32;;;3.80;;
28343;SDS011;15597;50.914;6.638;2022-09-21T08:16:22;12.57;;;5.22;;
28343;SDS011;15597;50.914;6.638;2022-09-21T08:18:49;9.55;;;3.95;;
28343;SDS011;15597;50.914;6.638;2022-09-21T08:21:15;11.13;;;5.00;;
28343;SDS011;15597;50.914;6.638;2022-09-21T08:23:41;9.80;;;3.40;;
28343;SDS011;15597;50.914;6.638;2022-09-21T08:26:09;7.03;;;3.70;;
28343;SDS011;15597;50.914;6.638;2022-09-21T08:28:37;9.60;;;3.70;;
28343;SDS011;15597;50.914;6.638;2022-09-21T08:31:05;10.60;;;4.32;;
28343;SDS011;15597;50.914;6.638;2022-09-21T08:33:33;9.43;;;4.38;;
28343;SDS011;15597;50.914;6.638;2022-09-21T08:35:59;8.35;;;3.53;;
28343;SDS011;15597;50.914;6.638;2022-09-21T08:38:26;10.35;;;4.55;;
28343;SDS011;15597;50.914;6.638;2022-09-21T08:40:56;10.45;;;3.78;;
28343;SDS011;15597;50.914;6.638;2022-09-21T08:43:35;16.40;;;5.45;;
28343;SDS011;15597;50.914;6.638;2022-09-21T08:46:05;7.90;;;3.97;;
28343;SDS011;15597;50.914;6.638;2022-09-21T08:48:38;10.45;;;4.35;;
28343;SDS011;15597;50.914;6.638;2022-09-21T08:51:08;12.05;;;5.00;;
28343;SDS011;15597;50.914;6.638;2022-09-21T08:53:38;9.93;;;4.47;;
28343;SDS011;15597;50.914;6.638;2022-09-21T08:56:10;12.75;;;4.85;;
28343;SDS011;15597;50.914;6.638;2022-09-21T08:58:37;13.07;;;6.88;;
28343;SDS011;15597;50.914;6.638;2022-09-21T09:04:31;13.55;;;6.72;;
28343;SDS011;15597;50.914;6.638;2022-09-21T09:09:51;12.02;;;5.18;;
28343;SDS011;15597;50.914;6.638;2022-09-21T09:15:53;9.75;;;4.43;;
28343;SDS011;15597;50.914;6.638;2022-09-21T09:18:17;10.68;;;4.32;;
28343;SDS011;15597;50.914;6.638;2022-09-21T09:21:38;12.07;;;6.20;;
28343;SDS011;15597;50.914;6.638;2022-09-21T09:23:48;10.77;;;3.70;;
28343;SDS011;15597;50.914;6.638;2022-09-21T09:26:26;11.27;;;5.28;;
28343;SDS011;15597;50.914;6.638;2022-09-21T09:29:01;11.23;;;6.10;;
28343;SDS011;15597;50.914;6.638;2022-09-21T09:31:35;11.55;;;4.63;;
28343;SDS011;15597;50.914;6.638;2022-09-21T09:34:07;8.10;;;3.90;;
28343;SDS011;15597;50.914;6.638;2022-09-21T09:36:37;10.15;;;4.85;;
28343;SDS011;15597;50.914;6.638;2022-09-21T09:39:09;10.77;;;5.25;;
28343;SDS011;15597;50.914;6.638;2022-09-21T09:44:37;12.88;;;5.53;;
28343;SDS011;15597;50.914;6.638;2022-09-21T09:50:07;9.43;;;4.90;;
28343;SDS011;15597;50.914;6.638;2022-09-21T09:52:37;7.68;;;3.65;;
28343;SDS011;15597;50.914;6.638;2022-09-21T09:55:15;12.70;;;4.38;;
28343;SDS011;15597;50.914;6.638;2022-09-21T09:57:44;9.52;;;3.60;;
28343;SDS011;15597;50.914;6.638;2022-09-21T10:00:13;7.68;;;3.50;;
28343;SDS011;15597;50.914;6.638;2022-09-21T10:02:52;8.75;;;4.20;;
28343;SDS011;15597;50.914;6.638;2022-09-21T10:05:23;10.85;;;4.55;;
28343;SDS011;15597;50.914;6.638;2022-09-21T10:07:49;9.75;;;3.50;;
28343;SDS011;15597;50.914;6.638;2022-09-21T10:13:01;9.50;;;3.70;;
28343;SDS011;15597;50.914;6.638;2022-09-21T10:15:49;11.57;;;3.40;;
28343;SDS011;15597;50.914;6.638;2022-09-21T10:18:22;6.78;;;2.53;;
28343;SDS011;15597;50.914;6.638;2022-09-21T10:21:01;8.50;;;3.33;;
28343;SDS011;15597;50.914;6.638;2022-09-21T10:23:30;8.13;;;3.20;;
28343;SDS011;15597;50.914;6.638;2022-09-21T10:26:02;7.75;;;2.90;;
28343;SDS011;15597;50.914;6.638;2022-09-21T10:28:32;7.10;;;2.75;;
28343;SDS011;15597;50.914;6.638;2022-09-21T10:31:11;6.63;;;2.58;;
28343;SDS011;15597;50.914;6.638;2022-09-21T10:36:38;7.65;;;2.60;;
28343;SDS011;15597;50.914;6.638;2022-09-21T10:39:24;9.02;;;2.72;;
28343;SDS011;15597;50.914;6.638;2022-09-21T10:41:53;6.38;;;2.92;;
28343;SDS011;15597;50.914;6.638;2022-09-21T10:44:42;5.88;;;2.70;;
28343;SDS011;15597;50.914;6.638;2022-09-21T10:49:56;8.60;;;3.10;;
28343;SDS011;15597;50.914;6.638;2022-09-21T10:52:30;6.97;;;3.35;;
28343;SDS011;15597;50.914;6.638;2022-09-21T10:54:58;7.70;;;3.78;;
28343;SDS011;15597;50.914;6.638;2022-09-21T10:57:24;9.88;;;3.85;;
28343;SDS011;15597;50.914;6.638;2022-09-21T10:59:52;11.35;;;4.38;;
28343;SDS011;15597;50.914;6.638;2022-09-21T11:04:57;9.65;;;3.70;;
28343;SDS011;15597;50.914;6.638;2022-09-21T11:07:29;8.38;;;2.97;;
28343;SDS011;15597;50.914;6.638;2022-09-21T11:15:53;10.18;;;4.22;;
28343;SDS011;15597;50.914;6.638;2022-09-21T11:27:09;8.82;;;4.22;;
28343;SDS011;15597;50.914;6.638;2022-09-21T11:40:57;7.68;;;3.38;;
28343;SDS011;15597;50.914;6.638;2022-09-21T11:43:45;7.55;;;2.78;;
28343;SDS011;15597;50.914;6.638;2022-09-21T11:54:08;4.97;;;2.10;;
28343;SDS011;15597;50.914;6.638;2022-09-21T12:05:40;5.60;;;1.70;;
28343;SDS011;15597;50.914;6.638;2022-09-21T12:08:03;4.72;;;1.52;;
28343;SDS011;15597;50.914;6.638;2022-09-21T12:13:30;6.05;;;1.88;;
28343;SDS011;15597;50.914;6.638;2022-09-21T12:24:41;3.88;;;1.30;;
28343;SDS011;15597;50.914;6.638;2022-09-21T12:27:27;7.63;;;1.70;;
28343;SDS011;15597;50.914;6.638;2022-09-21T12:29:59;3.65;;;1.25;;
28343;SDS011;15597;50.914;6.638;2022-09-21T12:38:21;4.53;;;1.60;;
28343;SDS011;15597;50.914;6.638;2022-09-21T12:40:52;5.15;;;1.58;;
28343;SDS011;15597;50.914;6.638;2022-09-21T12:48:44;7.38;;;1.65;;
28343;SDS011;15597;50.914;6.638;2022-09-21T12:53:46;3.83;;;1.10;;
28343;SDS011;15597;50.914;6.638;2022-09-21T13:11:04;4.68;;;1.20;;
28343;SDS011;15597;50.914;6.638;2022-09-21T13:13:30;4.68;;;1.25;;
28343;SDS011;15597;50.914;6.638;2022-09-21T13:15:59;4.32;;;1.08;;
28343;SDS011;15597;50.914;6.638;2022-09-21T13:18:33;4.32;;;1.20;;
28343;SDS011;15597;50.914;6.638;2022-09-21T13:21:11;3.53;;;0.85;;
28343;SDS011;15597;50.914;6.638;2022-09-21T13:23:42;4.28;;;1.00;;
28343;SDS011;15597;50.914;6.638;2022-09-21T13:26:15;3.90;;;1.08;;
28343;SDS011;15597;50.914;6.638;2022-09-21T13:31:40;5.93;;;1.27;;
28343;SDS011;15597;50.914;6.638;2022-09-21T13:34:29;3.67;;;0.90;;
28343;SDS011;15597;50.914;6.638;2022-09-21T13:45:00;2.42;;;0.80;;
28343;SDS011;15597;50.914;6.638;2022-09-21T13:47:41;4.93;;;1.10;;
28343;SDS011;15597;50.914;6.638;2022-09-21T13:50:30;3.95;;;1.10;;
28343;SDS011;15597;50.914;6.638;2022-09-21T13:53:21;3.13;;;0.90;;
28343;SDS011;15597;50.914;6.638;2022-09-21T13:55:52;3.40;;;0.75;;
28343;SDS011;15597;50.914;6.638;2022-09-21T13:58:31;3.05;;;0.95;;
28343;SDS011;15597;50.914;6.638;2022-09-21T14:01:05;3.42;;;0.90;;
28343;SDS011;15597;50.914;6.638;2022-09-21T14:03:56;3.42;;;0.90;;
28343;SDS011;15597;50.914;6.638;2022-09-21T14:06:34;4.05;;;1.00;;
28343;SDS011;15597;50.914;6.638;2022-09-21T14:09:18;2.50;;;0.80;;
28343;SDS011;15597;50.914;6.638;2022-09-21T14:11:55;2.75;;;0.90;;
28343;SDS011;15597;50.914;6.638;2022-09-21T14:14:31;2.63;;;0.90;;
28343;SDS011;15597;50.914;6.638;2022-09-21T14:17:03;3.28;;;0.82;;
28343;SDS011;15597;50.914;6.638;2022-09-21T14:27:40;3.08;;;0.90;;
28343;SDS011;15597;50.914;6.638;2022-09-21T14:30:21;2.05;;;0.60;;
28343;SDS011;15597;50.914;6.638;2022-09-21T14:35:37;3.08;;;0.80;;
28343;SDS011;15597;50.914;6.638;2022-09-21T14:38:13;3.42;;;0.75;;
28343;SDS011;15597;50.914;6.638;2022-09-21T14:40:49;3.13;;;0.70;;
28343;SDS011;15597;50.914;6.638;2022-09-21T14:43:20;4.68;;;0.90;;
28343;SDS011;15597;50.914;6.638;2022-09-21T14:51:17;2.92;;;0.90;;
28343;SDS011;15597;50.914;6.638;2022-09-21T14:56:42;3.03;;;0.90;;
28343;SDS011;15597;50.914;6.638;2022-09-21T14:59:22;6.85;;;1.00;;
28343;SDS011;15597;50.914;6.638;2022-09-21T15:01:56;2.72;;;0.80;;
28343;SDS011;15597;50.914;6.638;2022-09-21T15:07:32;3.83;;;0.88;;
28343;SDS011;15597;50.914;6.638;2022-09-21T15:15:55;5.60;;;0.90;;
28343;SDS011;15597;50.914;6.638;2022-09-21T15:18:31;3.22;;;0.90;;
28343;SDS011;15597;50.914;6.638;2022-09-21T15:21:01;3.80;;;1.00;;
28343;SDS011;15597;50.914;6.638;2022-09-21T15:23:30;3.33;;;0.80;;
28343;SDS011;15597;50.914;6.638;2022-09-21T15:26:09;3.97;;;1.00;;
28343;SDS011;15597;50.914;6.638;2022-09-21T15:28:43;4.28;;;1.05;;
28343;SDS011;15597;50.914;6.638;2022-09-21T15:31:13;4.13;;;0.90;;
28343;SDS011;15597;50.914;6.638;2022-09-21T15:33:40;3.28;;;0.80;;
28343;SDS011;15597;50.914;6.638;2022-09-21T15:36:35;2.35;;;0.80;;
28343;SDS011;15597;50.914;6.638;2022-09-21T15:38:58;3.80;;;1.00;;
28343;SDS011;15597;50.914;6.638;2022-09-21T15:41:45;3.83;;;1.05;;
28343;SDS011;15597;50.914;6.638;2022-09-21T15:44:20;5.38;;;0.98;;
28343;SDS011;15597;50.914;6.638;2022-09-21T15:46:49;2.92;;;0.70;;
28343;SDS011;15597;50.914;6.638;2022-09-21T15:49:18;2.00;;;0.68;;
28343;SDS011;15597;50.914;6.638;2022-09-21T15:51:53;3.35;;;0.77;;
28343;SDS011;15597;50.914;6.638;2022-09-21T15:54:51;4.95;;;0.80;;
28343;SDS011;15597;50.914;6.638;2022-09-21T15:57:33;1.92;;;0.60;;
28343;SDS011;15597;50.914;6.638;2022-09-21T16:02:56;2.83;;;0.80;;
28343;SDS011;15597;50.914;6.638;2022-09-21T16:06:16;2.88;;;0.70;;
28343;SDS011;15597;50.914;6.638;2022-09-21T16:11:15;2.15;;;0.70;;
28343;SDS011;15597;50.914;6.638;2022-09-21T16:13:41;2.85;;;0.70;;
28343;SDS011;15597;50.914;6.638;2022-09-21T16:16:26;3.97;;;0.98;;
28343;SDS011;15597;50.914;6.638;2022-09-21T16:18:53;3.55;;;1.40;;
28343;SDS011;15597;50.914;6.638;2022-09-21T16:23:48;4.57;;;1.38;;
28343;SDS011;15597;50.914;6.638;2022-09-21T16:26:18;2.60;;;0.90;;
28343;SDS011;15597;50.914;6.638;2022-09-21T16:28:46;3.88;;;1.05;;
28343;SDS011;15597;50.914;6.638;2022-09-21T16:31:46;4.40;;;1.42;;
28343;SDS011;15597;50.914;6.638;2022-09-21T16:34:16;4.18;;;1.20;;
28343;SDS011;15597;50.914;6.638;2022-09-21T16:36:49;3.17;;;1.10;;
28343;SDS011;15597;50.914;6.638;2022-09-21T16:39:17;2.58;;;0.90;;
28343;SDS011;15597;50.914;6.638;2022-09-21T16:41:53;3.47;;;1.10;;
28343;SDS011;15597;50.914;6.638;2022-09-21T16:44:24;4.50;;;1.20;;
28343;SDS011;15597;50.914;6.638;2022-09-21T16:46:55;5.93;;;1.33;;
28343;SDS011;15597;50.914;6.638;2022-09-21T16:49:24;3.90;;;1.17;;
28343;SDS011;15597;50.914;6.638;2022-09-21T16:51:52;7.47;;;1.38;;
28343;SDS011;15597;50.914;6.638;2022-09-21T16:54:20;5.50;;;1.48;;
28343;SDS011;15597;50.914;6.638;2022-09-21T16:56:48;2.97;;;1.17;;
28343;SDS011;15597;50.914;6.638;2022-09-21T16:59:17;3.58;;;1.15;;
28343;SDS011;15597;50.914;6.638;2022-09-21T17:01:54;4.75;;;1.40;;
28343;SDS011;15597;50.914;6.638;2022-09-21T17:04:22;3.45;;;1.02;;
28343;SDS011;15597;50.914;6.638;2022-09-21T17:06:52;4.72;;;1.60;;
28343;SDS011;15597;50.914;6.638;2022-09-21T17:09:26;3.97;;;1.00;;
28343;SDS011;15597;50.914;6.638;2022-09-21T17:11:59;3.03;;;1.20;;
28343;SDS011;15597;50.914;6.638;2022-09-21T17:14:26;4.38;;;1.40;;
28343;SDS011;15597;50.914;6.638;2022-09-21T17:16:55;3.42;;;1.20;;
28343;SDS011;15597;50.914;6.638;2022-09-21T17:19:22;4.85;;;1.02;;
28343;SDS011;15597;50.914;6.638;2022-09-21T17:21:49;3.63;;;1.27;;
28343;SDS011;15597;50.914;6.638;2022-09-21T17:24:15;5.22;;;1.45;;
28343;SDS011;15597;50.914;6.638;2022-09-21T17:26:41;3.05;;;1.10;;
28343;SDS011;15597;50.914;6.638;2022-09-21T17:29:18;5.50;;;1.45;;
28343;SDS011;15597;50.914;6.638;2022-09-21T17:31:51;4.28;;;1.45;;
28343;SDS011;15597;50.914;6.638;2022-09-21T17:34:22;5.72;;;1.58;;
28343;SDS011;15597;50.914;6.638;2022-09-21T17:36:53;6.22;;;1.60;;
28343;SDS011;15597;50.914;6.638;2022-09-21T17:39:20;4.63;;;1.63;;
28343;SDS011;15597;50.914;6.638;2022-09-21T17:47:36;6.35;;;1.90;;
28343;SDS011;15597;50.914;6.638;2022-09-21T17:52:35;5.80;;;2.42;;
28343;SDS011;15597;50.914;6.638;2022-09-21T17:55:19;6.60;;;2.95;;
28343;SDS011;15597;50.914;6.638;2022-09-21T17:57:47;6.43;;;2.50;;
28343;SDS011;15597;50.914;6.638;2022-09-21T18:00:40;6.97;;;2.30;;
28343;SDS011;15597;50.914;6.638;2022-09-21T18:03:41;5.50;;;2.47;;
28343;SDS011;15597;50.914;6.638;2022-09-21T18:06:11;5.82;;;2.63;;
28343;SDS011;15597;50.914;6.638;2022-09-21T18:08:37;8.10;;;2.80;;
28343;SDS011;15597;50.914;6.638;2022-09-21T18:16:38;8.88;;;5.15;;
28343;SDS011;15597;50.914;6.638;2022-09-21T18:20:14;11.02;;;5.28;;
28343;SDS011;15597;50.914;6.638;2022-09-21T18:24:57;8.57;;;4.45;;
28343;SDS011;15597;50.914;6.638;2022-09-21T18:27:24;8.23;;;4.32;;
28343;SDS011;15597;50.914;6.638;2022-09-21T18:29:50;8.20;;;4.10;;
28343;SDS011;15597;50.914;6.638;2022-09-21T18:46:41;14.02;;;6.90;;
28343;SDS011;15597;50.914;6.638;2022-09-21T18:49:25;18.27;;;8.50;;
28343;SDS011;15597;50.914;6.638;2022-09-21T18:54:27;18.80;;;9.23;;
28343;SDS011;15597;50.914;6.638;2022-09-21T18:56:53;18.73;;;7.63;;
28343;SDS011;15597;50.914;6.638;2022-09-21T18:59:19;14.77;;;7.25;;
28343;SDS011;15597;50.914;6.638;2022-09-21T19:01:46;14.77;;;6.57;;
28343;SDS011;15597;50.914;6.638;2022-09-21T19:04:12;16.05;;;7.53;;
28343;SDS011;15597;50.914;6.638;2022-09-21T19:06:41;18.98;;;7.63;;
28343;SDS011;15597;50.914;6.638;2022-09-21T19:12:00;13.07;;;6.35;;